IE-0047 weather

Fethard Airstrip
Fethard, County Tipperary, Ireland

Public forecast

Using degrees Celsius for public forecast. Weather courtesy of forecast.io.

METAR (pilot weather report)

Closest report is Waterford Airport, 29.3 nm (54.2 km) SE. Retrieved 2019/06/16 20:30 UTC (1 hour ago):

EIWF 162030Z 25015KT 200V290 CAVOK ///// Q1009

TAF (pilot weather forecast)

Closest forecast is Shannon Airport, 45.6 nm (84.4 km) WNW. Retrieved 2019/06/16 18:09 UTC (4 hours ago):

TAF EINN 161700Z 1618/1718 24013KT 9999 FEW012 BKN030 TEMPO 1618/1619 -SHRA SCT018CB BECMG 1619/1622 20009KT BECMG 1623/1702 17008KT BECMG 1706/1709 21013KT BECMG 1712/1714 24014KT